createdAt,value
2022-12-04T00:00:00.399Z,32.2
2022-12-04T00:01:57.878Z,30.9
2022-12-04T00:03:55.349Z,30.2
2022-12-04T00:05:52.841Z,30
2022-12-04T00:09:55.834Z,31.7
2022-12-04T00:11:53.203Z,28.6
2022-12-04T00:15:23.849Z,31.2
2022-12-04T00:16:50.953Z,31.9
2022-12-04T00:18:48.328Z,30.2
2022-12-04T00:20:53.690Z,33.1
2022-12-04T00:22:51.275Z,27.1
2022-12-04T00:24:48.740Z,30.4
2022-12-04T00:26:46.262Z,29.6
2022-12-04T00:28:43.712Z,31
2022-12-04T00:32:38.692Z,28.9
2022-12-04T00:34:44.216Z,32.9
2022-12-04T00:38:39.377Z,30.7
2022-12-04T00:40:36.870Z,24.9
2022-12-04T00:42:34.337Z,30.9
2022-12-04T00:50:32.393Z,28.7
2022-12-04T00:52:29.953Z,29
2022-12-04T00:54:27.465Z,30.1
2022-12-04T00:56:25.035Z,32.1
2022-12-04T00:58:22.525Z,30.1
2022-12-04T01:00:20.009Z,30.9
2022-12-04T01:02:25.513Z,34
2022-12-04T01:04:22.980Z,29
2022-12-04T01:10:41.394Z,30.4
2022-12-04T01:12:38.892Z,29
2022-12-04T01:14:44.263Z,27.8
2022-12-04T01:16:41.866Z,34.4
2022-12-04T01:18:39.237Z,27.2
2022-12-04T01:20:36.725Z,31.9
2022-12-04T01:24:31.700Z,35.3
2022-12-04T01:26:29.194Z,31
2022-12-04T01:30:32.142Z,31.4
2022-12-04T01:32:29.626Z,30.1
2022-12-04T01:34:27.135Z,31.1
2022-12-04T01:36:24.615Z,29
2022-12-04T01:38:22.092Z,33
2022-12-04T01:40:19.555Z,29.1
2022-12-04T01:46:19.991Z,31.6
2022-12-04T01:48:17.530Z,30.4
2022-12-04T01:50:15.017Z,31.4
2022-12-04T01:52:12.503Z,30.3
2022-12-04T01:54:09.963Z,34.8
2022-12-04T01:56:15.476Z,29.4
2022-12-04T01:58:12.929Z,30.6
2022-12-04T02:00:10.463Z,30.3
2022-12-04T02:03:10.753Z,30.2
2022-12-04T02:05:08.187Z,29.4
2022-12-04T02:07:05.677Z,32.8
2022-12-04T02:11:08.631Z,28.6
2022-12-04T02:13:06.128Z,29.8
2022-12-04T02:15:03.622Z,31.1
2022-12-04T02:17:01.271Z,28.4
2022-12-04T02:18:58.687Z,32.5
2022-12-04T02:20:56.170Z,27.1
2022-12-04T02:23:01.545Z,29.7
2022-12-04T02:24:59.031Z,32
2022-12-04T02:26:56.522Z,31
2022-12-04T02:28:54.029Z,36.9
2022-12-04T02:30:51.557Z,26.3
2022-12-04T02:32:49.016Z,26.9
2022-12-04T02:36:51.958Z,31.6
2022-12-04T02:38:49.437Z,29.3
2022-12-04T02:44:41.912Z,30.7
2022-12-04T02:46:39.382Z,30.3
2022-12-04T02:48:36.875Z,31.9
2022-12-04T02:50:42.249Z,32.2
2022-12-04T02:52:39.831Z,30.9
2022-12-04T02:54:37.328Z,26.1
2022-12-04T02:55:40.002Z,31.8
2022-12-04T02:57:37.486Z,30.9
2022-12-04T02:59:34.944Z,32.1
2022-12-04T03:09:30.301Z,32
2022-12-04T03:13:25.459Z,33
2022-12-04T03:15:22.961Z,33.3
2022-12-04T03:19:25.804Z,34.4
2022-12-04T03:23:20.775Z,30.5
2022-12-04T03:25:18.320Z,32.1
2022-12-04T03:27:15.758Z,29.8
2022-12-04T03:29:13.259Z,33.8
2022-12-04T03:31:18.653Z,36
2022-12-04T03:33:16.076Z,29.5
2022-12-04T03:35:13.571Z,32.7
2022-12-04T03:37:11.068Z,39
2022-12-04T03:43:03.607Z,32
2022-12-04T03:45:09.213Z,29.6
2022-12-04T03:47:06.665Z,35.8
2022-12-04T03:49:04.156Z,32.7
2022-12-04T03:52:04.306Z,31.5
2022-12-04T03:54:01.801Z,30.7
2022-12-04T03:55:59.309Z,31.2
2022-12-04T03:58:04.817Z,34.2
2022-12-04T04:00:02.583Z,31.8
2022-12-04T04:01:59.647Z,34.5
2022-12-04T04:03:57.081Z,32.6
2022-12-04T04:07:52.102Z,28.9
2022-12-04T04:09:49.515Z,31.2
2022-12-04T04:11:55.007Z,33.6
2022-12-04T04:15:50.029Z,32.5
2022-12-04T04:17:47.436Z,33.6
2022-12-04T04:19:44.905Z,33.7
2022-12-04T04:23:39.951Z,32.5
2022-12-04T04:25:45.330Z,34.5
2022-12-04T04:35:33.013Z,31.7
2022-12-04T04:37:30.516Z,31.7
2022-12-04T04:41:33.497Z,29.5
2022-12-04T04:45:58.183Z,36.7
2022-12-04T04:47:55.565Z,32.7
2022-12-04T04:49:53.309Z,30.6
2022-12-04T04:51:58.512Z,34.4
2022-12-04T04:53:55.995Z,32.3
2022-12-04T04:55:53.468Z,29.7
2022-12-04T04:57:50.923Z,27.9
2022-12-04T04:59:48.393Z,34.2
2022-12-04T05:01:46.007Z,33.5
2022-12-04T05:03:43.476Z,29.4
2022-12-04T05:05:48.834Z,30.6
2022-12-04T05:07:46.400Z,33.6
2022-12-04T05:09:43.753Z,35.1
2022-12-04T05:11:41.260Z,31
2022-12-04T05:17:33.691Z,32.9
2022-12-04T05:19:39.049Z,29.8
2022-12-04T05:21:38.092Z,30.5
2022-12-04T05:23:35.521Z,34.1
2022-12-04T05:25:33.124Z,32
2022-12-04T05:27:30.702Z,26.5
2022-12-04T05:29:31.608Z,29.9
2022-12-04T05:31:25.789Z,32
2022-12-04T05:33:31.083Z,36.3
2022-12-04T05:35:28.682Z,34.2
2022-12-04T05:37:26.131Z,26.3
2022-12-04T05:48:24.401Z,29.1
2022-12-04T05:50:22.020Z,33.5
2022-12-04T05:52:19.325Z,32.3
2022-12-04T05:54:16.833Z,31.7
2022-12-04T05:56:14.317Z,30.3
2022-12-04T05:58:11.927Z,29.3
2022-12-04T06:00:17.343Z,29
2022-12-04T06:02:14.896Z,30.7
2022-12-04T06:04:12.319Z,31
2022-12-04T06:06:09.900Z,26.1
2022-12-04T06:08:07.558Z,29.6
2022-12-04T06:10:04.968Z,28.5
2022-12-04T06:12:02.436Z,32.7
2022-12-04T06:14:07.807Z,31.9
2022-12-04T06:16:05.451Z,26.3
2022-12-04T06:18:02.752Z,33.9
2022-12-04T06:20:00.560Z,31.6
2022-12-04T06:23:55.394Z,31.2
2022-12-04T06:25:52.872Z,32.9
2022-12-04T06:27:58.221Z,29.5
2022-12-04T06:29:56.211Z,30.8
2022-12-04T06:31:53.248Z,34
2022-12-04T06:32:55.866Z,32.6
2022-12-04T06:34:53.459Z,27.9
2022-12-04T06:36:50.824Z,31.5
2022-12-04T06:40:53.774Z,31.6
2022-12-04T06:42:51.262Z,34.2
2022-12-04T06:48:43.645Z,33.3
2022-12-04T06:50:41.125Z,30.8
2022-12-04T06:52:38.621Z,31.6
2022-12-04T06:54:44.013Z,33.8
2022-12-04T06:56:41.522Z,28.4
2022-12-04T06:58:38.960Z,28
2022-12-04T07:00:36.653Z,30.1
2022-12-04T07:02:34.089Z,34.5
2022-12-04T07:04:31.530Z,30.2
2022-12-04T07:08:34.354Z,28.6
2022-12-04T07:10:31.877Z,30.6
2022-12-04T07:14:26.898Z,28.2
2022-12-04T07:18:21.820Z,34.1
2022-12-04T07:20:19.293Z,32.8
2022-12-04T07:22:24.657Z,33.5
2022-12-04T07:24:22.137Z,34.6
2022-12-04T07:26:19.611Z,32.4
2022-12-04T07:27:22.277Z,34.1
2022-12-04T07:29:19.743Z,32.4
2022-12-04T07:33:14.712Z,33.5
2022-12-04T07:39:15.135Z,33.4
2022-12-04T07:41:12.650Z,33.2
2022-12-04T07:43:10.143Z,29.6
2022-12-04T07:47:05.273Z,34.6
2022-12-04T07:49:10.632Z,30.5
2022-12-04T07:51:08.251Z,31.6
2022-12-04T07:53:05.690Z,32.2
2022-12-04T07:55:03.153Z,29.5
2022-12-04T07:57:00.609Z,27.9
2022-12-04T07:58:58.107Z,28.6
2022-12-04T08:00:55.734Z,34.4
2022-12-04T08:03:01.059Z,31.5
2022-12-04T08:04:58.603Z,30.8
2022-12-04T08:06:56.028Z,35.3
2022-12-04T08:08:53.482Z,30.8
2022-12-04T08:10:50.982Z,33.2
2022-12-04T08:12:48.493Z,29.6
2022-12-04T08:16:53.041Z,32.4
2022-12-04T08:18:49.525Z,39.1
2022-12-04T08:20:47.021Z,29.9
2022-12-04T08:23:09.887Z,29.8
2022-12-04T08:27:04.829Z,32.1
2022-12-04T08:29:10.198Z,29.8
2022-12-04T08:33:05.137Z,27
2022-12-04T08:35:02.631Z,29.1
2022-12-04T08:37:00.095Z,27.4
2022-12-04T08:38:57.564Z,33.2
2022-12-04T08:40:55.062Z,28.2
2022-12-04T08:43:00.457Z,30.1
2022-12-04T08:44:57.891Z,25.7
2022-12-04T08:46:55.398Z,26.3
2022-12-04T08:48:52.866Z,27.2
2022-12-04T08:50:50.430Z,29.7
2022-12-04T08:52:47.908Z,30.2
2022-12-04T08:54:45.480Z,27.6
2022-12-04T08:56:50.829Z,27.7
2022-12-04T08:58:48.426Z,29
2022-12-04T09:00:45.929Z,26.6
2022-12-04T09:02:43.386Z,25.8
2022-12-04T09:04:41.050Z,26.2
2022-12-04T09:10:41.323Z,28.6
2022-12-04T09:14:36.460Z,22.8
2022-12-04T09:15:39.292Z,20.7
2022-12-04T09:17:36.625Z,24.8
2022-12-04T09:19:34.149Z,21.5
2022-12-04T09:21:31.642Z,19.9
2022-12-04T09:23:36.973Z,22.6
2022-12-04T09:25:34.470Z,20
2022-12-04T09:27:31.963Z,21.3
2022-12-04T09:29:29.454Z,20.4
2022-12-04T09:33:24.404Z,15.9
2022-12-04T09:35:21.902Z,20.2
2022-12-04T09:37:27.294Z,16.4
2022-12-04T09:39:24.787Z,19
2022-12-04T09:41:22.288Z,17.5
2022-12-04T09:43:19.755Z,20.4
2022-12-04T09:45:17.264Z,18.3
2022-12-04T09:47:14.744Z,19.8
2022-12-04T09:49:12.229Z,17.7
2022-12-04T09:51:17.707Z,19.6
2022-12-04T09:53:15.191Z,17.2
2022-12-04T09:55:12.682Z,20.9
2022-12-04T09:57:10.172Z,16.6
2022-12-04T09:59:07.673Z,17.4
2022-12-04T10:01:05.145Z,22.5
2022-12-04T10:03:02.715Z,16.1
2022-12-04T10:05:08.015Z,17.6
2022-12-04T10:07:05.522Z,20.4
2022-12-04T10:09:03.000Z,20.8
2022-12-04T10:10:05.653Z,16.8
2022-12-04T10:12:03.170Z,19.1
2022-12-04T10:14:00.652Z,18.7
2022-12-04T10:15:58.162Z,18.7
2022-12-04T10:18:03.626Z,19.5
2022-12-04T10:20:01.146Z,17.7
2022-12-04T10:21:58.584Z,17.2
2022-12-04T10:23:56.101Z,16.2
2022-12-04T10:25:53.605Z,18.5
2022-12-04T10:27:51.102Z,15.5
2022-12-04T10:29:48.589Z,16.3
2022-12-04T10:31:53.977Z,19.7
2022-12-04T10:33:51.434Z,16
2022-12-04T10:37:46.436Z,16.3
2022-12-04T10:39:43.943Z,15.9
2022-12-04T10:41:41.408Z,15.1
2022-12-04T10:43:39.007Z,16
2022-12-04T10:45:44.337Z,17
2022-12-04T10:47:41.801Z,13.4
2022-12-04T10:51:36.864Z,14
2022-12-04T10:53:34.272Z,14.4
2022-12-04T10:55:31.896Z,13.1
2022-12-04T10:57:29.367Z,18.1
2022-12-04T10:59:34.720Z,14.1
2022-12-04T11:01:32.284Z,16.6
2022-12-04T11:03:31.357Z,15.4
2022-12-04T11:04:33.903Z,14.8
2022-12-04T11:06:31.378Z,16.8
2022-12-04T11:12:31.755Z,16.7
2022-12-04T11:18:24.262Z,14
2022-12-04T11:20:21.730Z,15.6
2022-12-04T11:24:16.726Z,14.6
2022-12-04T11:26:22.105Z,15.2
2022-12-04T11:28:40.595Z,16
2022-12-04T11:30:17.189Z,15.1
2022-12-04T11:32:14.700Z,15.4
2022-12-04T11:34:12.162Z,13.6
2022-12-04T11:40:12.543Z,15.7
2022-12-04T11:42:10.034Z,16.1
2022-12-04T11:46:05.038Z,13.3
2022-12-04T11:48:02.574Z,13.4
2022-12-04T11:50:00.309Z,14.3
2022-12-04T11:51:57.672Z,13.3
2022-12-04T11:54:02.939Z,14.6
2022-12-04T11:56:00.401Z,11.9
2022-12-04T11:57:57.926Z,13
2022-12-04T12:00:21.306Z,13.6
2022-12-04T12:06:21.783Z,12.5
2022-12-04T12:10:16.756Z,15.3
2022-12-04T12:12:14.445Z,16.9
2022-12-04T12:14:11.762Z,15.1
2022-12-04T12:16:09.306Z,13.2
2022-12-04T12:18:06.840Z,15.2
2022-12-04T12:20:12.262Z,14.2
2022-12-04T12:22:09.787Z,14.5
2022-12-04T12:24:07.281Z,13.9
2022-12-04T12:26:04.799Z,15.9
2022-12-04T12:28:02.376Z,16.1
2022-12-04T12:29:59.854Z,15.8
2022-12-04T12:31:57.508Z,15.7
2022-12-04T12:34:02.872Z,17.6
2022-12-04T12:36:00.410Z,15.9
2022-12-04T12:43:50.373Z,14.3
2022-12-04T12:45:47.935Z,16.1
2022-12-04T12:47:53.403Z,15.9
2022-12-04T12:49:50.786Z,17.2
2022-12-04T12:51:48.299Z,17
2022-12-04T12:52:50.993Z,12.2
2022-12-04T12:54:48.497Z,16.7
2022-12-04T12:56:49.592Z,18.5
2022-12-04T12:58:43.494Z,16.9
2022-12-04T13:00:49.009Z,16.5
2022-12-04T13:02:45.084Z,17.3
2022-12-04T13:04:42.559Z,18.5
2022-12-04T13:06:40.067Z,17.2
2022-12-04T13:08:37.568Z,17.6
2022-12-04T13:10:35.080Z,17.8
2022-12-04T13:12:32.601Z,17.5
2022-12-04T13:14:37.995Z,18
2022-12-04T13:16:35.608Z,19.9
2022-12-04T13:18:33.020Z,20.2
2022-12-04T13:20:30.627Z,18.4
2022-12-04T13:22:28.113Z,21.3
2022-12-04T13:24:25.605Z,19.4
2022-12-04T13:26:23.118Z,21.5
2022-12-04T13:28:28.510Z,23.1
2022-12-04T13:30:26.010Z,21.1
2022-12-04T13:32:27.232Z,20.3
2022-12-04T13:34:21.036Z,20.7
2022-12-04T13:36:18.518Z,22.6
2022-12-04T13:38:16.025Z,22.5
2022-12-04T13:40:13.532Z,22.1
2022-12-04T13:47:16.609Z,27.8
2022-12-04T13:49:14.136Z,26.3
2022-12-04T13:51:11.646Z,19.9
2022-12-04T13:53:09.232Z,23.7
2022-12-04T13:55:14.617Z,24.9
2022-12-04T13:57:12.118Z,24.1
2022-12-04T13:59:09.798Z,23.4
2022-12-04T14:01:07.197Z,24.6
2022-12-04T14:03:04.735Z,22
2022-12-04T14:05:02.145Z,26.6
2022-12-04T14:06:59.634Z,24.2
2022-12-04T14:09:05.035Z,21.4
2022-12-04T14:13:00.037Z,26.7
2022-12-04T14:16:55.099Z,25.2
2022-12-04T14:18:52.548Z,25.3
2022-12-04T14:20:50.060Z,29.2
2022-12-04T14:22:55.449Z,25.8
2022-12-04T14:24:53.080Z,24.6
2022-12-04T14:28:48.000Z,26
2022-12-04T14:30:45.598Z,23.2
2022-12-04T14:32:42.976Z,23.1
2022-12-04T14:34:40.589Z,26.4
2022-12-04T14:36:46.213Z,21.4
2022-12-04T14:38:43.692Z,24.6
2022-12-04T14:40:41.202Z,25.1
2022-12-04T14:41:43.898Z,25.5
2022-12-04T14:43:41.376Z,24.6
2022-12-04T14:45:38.892Z,27.4
2022-12-04T14:49:41.776Z,23.4
2022-12-04T14:51:39.293Z,25.3
2022-12-04T14:53:36.796Z,21.4
2022-12-04T14:55:34.428Z,27.7
2022-12-04T14:57:31.790Z,22.6
2022-12-04T14:59:29.299Z,23.8
2022-12-04T15:01:29.322Z,25.6
2022-12-04T15:03:32.340Z,25.2
2022-12-04T15:05:29.687Z,22.9
2022-12-04T15:07:27.371Z,21.1
2022-12-04T15:09:24.712Z,23.3
2022-12-04T15:11:22.229Z,20.9
2022-12-04T15:13:21.676Z,22.3
2022-12-04T15:15:17.254Z,24.6
2022-12-04T15:21:17.775Z,22.1
2022-12-04T15:23:15.166Z,25.4
2022-12-04T15:29:07.734Z,21.3
2022-12-04T15:33:10.635Z,25
2022-12-04T15:35:08.123Z,25.2
2022-12-04T15:37:35.018Z,21.8
2022-12-04T15:39:32.553Z,25
2022-12-04T15:41:30.039Z,20.2
2022-12-04T15:43:35.450Z,25.1
2022-12-04T15:45:32.960Z,22.4
2022-12-04T15:47:30.482Z,25
2022-12-04T15:49:27.991Z,24.7
2022-12-04T15:51:25.483Z,28.5
2022-12-04T15:53:22.984Z,23.7
2022-12-04T15:55:20.513Z,25.3
2022-12-04T15:57:26.897Z,22.9
2022-12-04T15:59:24.232Z,24.1
2022-12-04T16:01:21.766Z,25.5
2022-12-04T16:03:19.268Z,24.1
2022-12-04T16:05:16.744Z,26
2022-12-04T16:07:14.278Z,24.5
2022-12-04T16:09:11.757Z,24.5
2022-12-04T16:11:17.147Z,25.7
2022-12-04T16:13:14.675Z,25.7
2022-12-04T16:15:12.197Z,27.2
2022-12-04T16:19:07.224Z,24.7
2022-12-04T16:21:04.720Z,30.8
2022-12-04T16:25:07.628Z,23.8
2022-12-04T16:27:05.124Z,23.7
2022-12-04T16:29:02.668Z,23.7
2022-12-04T16:30:05.354Z,24.4
2022-12-04T16:32:03.493Z,26.9
2022-12-04T16:34:00.349Z,21.3
2022-12-04T16:35:57.873Z,22.5
2022-12-04T16:38:03.316Z,19.5
2022-12-04T16:43:57.419Z,21.7
2022-12-04T16:45:54.912Z,24.3
2022-12-04T16:51:55.339Z,23.4
2022-12-04T16:55:50.375Z,21.9
2022-12-04T16:57:47.893Z,22.6
2022-12-04T16:59:45.429Z,22.2
2022-12-04T17:01:43.029Z,19.3
2022-12-04T17:03:40.508Z,23
2022-12-04T17:05:45.879Z,22.2
2022-12-04T17:07:43.438Z,23
2022-12-04T17:09:40.872Z,18.3
2022-12-04T17:11:38.407Z,20.9
2022-12-04T17:13:35.913Z,25.2
2022-12-04T17:15:33.443Z,23.7
2022-12-04T17:17:30.943Z,27.2
2022-12-04T17:19:36.367Z,23.9
2022-12-04T17:21:33.898Z,22.4
2022-12-04T17:23:31.389Z,26.5
2022-12-04T17:24:34.112Z,25
2022-12-04T17:26:31.648Z,27.1
2022-12-04T17:28:29.177Z,25.8
2022-12-04T17:30:29.179Z,25.4
2022-12-04T17:32:32.059Z,25.3
2022-12-04T17:34:29.583Z,30.2
2022-12-04T17:36:27.105Z,31.7
2022-12-04T17:38:24.623Z,30.5
2022-12-04T17:40:22.125Z,30.7
2022-12-04T17:42:19.641Z,27.3
2022-12-04T17:44:17.136Z,27.5
2022-12-04T17:46:22.566Z,29.8
2022-12-04T17:48:20.086Z,31.1
2022-12-04T17:50:17.592Z,31.4
2022-12-04T17:52:15.110Z,26.6
2022-12-04T17:54:12.640Z,28.1
2022-12-04T17:56:10.159Z,34.8
2022-12-04T17:58:07.653Z,28.6
2022-12-04T18:00:13.053Z,28.7
2022-12-04T18:02:10.558Z,28.6
2022-12-04T18:04:08.109Z,27.4
2022-12-04T18:06:05.626Z,29.1
2022-12-04T18:08:03.154Z,27
2022-12-04T18:10:00.944Z,27.4
2022-12-04T18:11:58.153Z,27.7
2022-12-04T18:14:08.544Z,28.4
2022-12-04T18:16:01.128Z,26.2
2022-12-04T18:17:58.607Z,28.4
2022-12-04T18:19:01.308Z,29.4
2022-12-04T18:20:58.812Z,32.1
2022-12-04T18:22:56.344Z,28.9
2022-12-04T18:24:53.843Z,32.5
2022-12-04T18:26:59.244Z,33.3
2022-12-04T18:28:56.761Z,27.1
2022-12-04T18:36:46.880Z,30.9
2022-12-04T18:40:49.811Z,28.1
2022-12-04T18:42:47.336Z,28
2022-12-04T18:44:44.864Z,29.1
2022-12-04T18:46:42.363Z,27.7
2022-12-04T18:48:39.888Z,30.8
2022-12-04T18:50:37.401Z,26.5
2022-12-04T18:52:34.932Z,27.2
2022-12-04T18:54:40.335Z,28.6
2022-12-04T18:56:37.864Z,31.5
2022-12-04T18:58:35.388Z,26.7
2022-12-04T19:00:32.903Z,24.6
2022-12-04T19:02:30.539Z,31.2
2022-12-04T19:04:27.939Z,25.6
2022-12-04T19:08:33.744Z,30.4
2022-12-04T19:10:28.685Z,29.9
2022-12-04T19:12:25.922Z,29.3
2022-12-04T19:14:52.842Z,33.5
2022-12-04T19:16:50.421Z,28.3
2022-12-04T19:18:47.859Z,29.4
2022-12-04T19:20:53.283Z,36.4
2022-12-04T19:22:50.791Z,30.5
2022-12-04T19:28:43.373Z,28.6
2022-12-04T19:30:40.892Z,26.6
2022-12-04T19:32:38.425Z,32.7
2022-12-04T19:34:43.871Z,30.5
2022-12-04T19:36:41.505Z,27.8
2022-12-04T19:38:39.000Z,26.1
2022-12-04T19:40:36.536Z,29.2
2022-12-04T19:42:34.060Z,28.7
2022-12-04T19:44:48.895Z,30.5
2022-12-04T19:46:29.219Z,29.7
2022-12-04T19:48:34.489Z,30.4
2022-12-04T19:50:31.996Z,32.1
2022-12-04T19:52:29.517Z,27.9
2022-12-04T19:54:27.019Z,28.5
2022-12-04T19:56:24.584Z,31.7
2022-12-04T19:58:22.059Z,31.8
2022-12-04T20:00:19.607Z,30.3
2022-12-04T20:04:22.547Z,31.8
2022-12-04T20:06:20.073Z,28.4
2022-12-04T20:07:22.837Z,31.3
2022-12-04T20:09:20.284Z,30.1
2022-12-04T20:11:17.829Z,29.3
2022-12-04T20:13:15.343Z,28.3
2022-12-04T20:15:20.767Z,29.7
2022-12-04T20:17:18.278Z,31.2
2022-12-04T20:19:15.789Z,30.8
2022-12-04T20:21:13.340Z,26.6
2022-12-04T20:23:10.876Z,30.7
2022-12-04T20:25:08.391Z,27.1
2022-12-04T20:27:05.883Z,29.1
2022-12-04T20:29:11.309Z,27.4
2022-12-04T20:31:08.864Z,29.1
2022-12-04T20:33:06.371Z,30.4
2022-12-04T20:35:03.885Z,29.4
2022-12-04T20:37:01.407Z,30.8
2022-12-04T20:40:56.456Z,26.6
2022-12-04T20:43:01.899Z,31.1
2022-12-04T20:48:54.469Z,33.1
2022-12-04T20:50:52.003Z,29.4
2022-12-04T20:52:49.521Z,29
2022-12-04T20:54:47.060Z,31.1
2022-12-04T20:58:50.008Z,30.8
2022-12-04T21:00:47.558Z,32
2022-12-04T21:05:45.322Z,31
2022-12-04T21:07:42.883Z,34
2022-12-04T21:11:45.810Z,30.6
2022-12-04T21:13:43.319Z,32.5
2022-12-04T21:15:40.911Z,28
2022-12-04T21:17:38.387Z,26.6
2022-12-04T21:19:35.944Z,30
2022-12-04T21:21:33.429Z,29.3
2022-12-04T21:23:38.866Z,28.5
2022-12-04T21:25:36.359Z,30.5
2022-12-04T21:33:26.484Z,24.8
2022-12-04T21:35:23.997Z,29.8
2022-12-04T21:37:29.454Z,32.5
2022-12-04T21:39:26.986Z,28.2
2022-12-04T21:43:22.058Z,25.2
2022-12-04T21:45:19.542Z,30.6
2022-12-04T21:47:17.098Z,27.5
2022-12-04T21:49:14.603Z,29
2022-12-04T21:51:48.261Z,31
2022-12-04T21:53:17.558Z,31
2022-12-04T21:55:15.085Z,28.9
2022-12-04T21:56:17.815Z,29.8
2022-12-04T21:58:15.334Z,31.5
2022-12-04T22:00:12.877Z,29.2
2022-12-04T22:02:10.493Z,29.7
2022-12-04T22:04:15.790Z,31
2022-12-04T22:06:13.329Z,27.4
2022-12-04T22:08:10.941Z,28.9
2022-12-04T22:10:10.880Z,25.2
2022-12-04T22:12:26.356Z,29.9
2022-12-04T22:16:01.030Z,32.3
2022-12-04T22:18:06.361Z,27.3
2022-12-04T22:20:03.881Z,29.2
2022-12-04T22:22:01.427Z,27.2
2022-12-04T22:23:59.014Z,26.3
2022-12-04T22:25:58.160Z,25.4
2022-12-04T22:27:55.621Z,26.7
2022-12-04T22:29:53.143Z,28
2022-12-04T22:31:58.549Z,28.3
2022-12-04T22:33:56.123Z,30.6
2022-12-04T22:39:48.694Z,30.9
2022-12-04T22:41:46.240Z,24.6
2022-12-04T22:45:49.225Z,31.4
2022-12-04T22:52:06.888Z,28.3
2022-12-04T23:02:02.478Z,27.8
2022-12-04T23:04:00.020Z,25.4
2022-12-04T23:05:57.568Z,25.5
2022-12-04T23:07:55.183Z,24.7
2022-12-04T23:09:52.649Z,25.1
2022-12-04T23:11:58.058Z,28.8
2022-12-04T23:13:55.594Z,24.8
2022-12-04T23:15:53.202Z,24.3
2022-12-04T23:17:50.672Z,25.4
2022-12-04T23:19:48.226Z,25.1
2022-12-04T23:21:45.782Z,26.5
2022-12-04T23:23:43.302Z,24.5
2022-12-04T23:25:48.719Z,24
2022-12-04T23:27:46.252Z,27.8
2022-12-04T23:29:53.139Z,24.7
2022-12-04T23:31:41.364Z,25.9
2022-12-04T23:33:38.859Z,25.7
2022-12-04T23:35:36.407Z,29
2022-12-04T23:37:33.955Z,30.9
2022-12-04T23:39:39.337Z,25
2022-12-04T23:41:36.864Z,30.2
2022-12-04T23:44:37.155Z,25.2
2022-12-04T23:46:34.800Z,27.6
2022-12-04T23:48:32.243Z,24.7
2022-12-04T23:50:29.758Z,25.8
2022-12-04T23:54:32.749Z,25.8
2022-12-04T23:56:30.294Z,24.8
2022-12-04T23:58:27.816Z,24.6
